Time;durP1;ratioP1;P1;durP2;ratioP2;P2;SDS_P1;SDS_P2;PMS_P1;PMS_P2;Temp;Humidity;BMP_temperature;BMP_pressure;BME280_temperature;BME280_humidity;BME280_pressure;Samples;Min_cycle;Max_cycle;Signal;HPM_P1;HPM_P2
2022/10/31 00:00:26;;;;;;;27.63;7.77;;;13.60;99.90;;;;;;4393439;28;658376;-69
2022/10/31 00:03:14;;;;;;;18.27;7.57;;;13.80;99.90;;;;;;4406520;28;658154;-69
2022/10/31 00:06:01;;;;;;;27.63;7.67;;;13.80;99.90;;;;;;4383176;28;657608;-69
2022/10/31 00:08:48;;;;;;;23.23;7.90;;;13.60;99.90;;;;;;4407662;28;659722;-70
2022/10/31 00:11:35;;;;;;;23.87;8.27;;;13.60;99.90;;;;;;4386283;28;658061;-69
2022/10/31 00:14:23;;;;;;;26.87;7.50;;;13.60;99.90;;;;;;4410202;28;659791;-70
2022/10/31 00:17:11;;;;;;;21.83;7.70;;;13.60;99.90;;;;;;4400188;28;657331;-70
2022/10/31 00:19:59;;;;;;;15.87;7.17;;;13.50;99.90;;;;;;4409209;28;658220;-70
2022/10/31 00:22:46;;;;;;;18.40;8.17;;;13.50;99.90;;;;;;4389703;28;658433;-70
2022/10/31 00:25:35;;;;;;;17.90;7.33;;;13.50;99.90;;;;;;4405902;28;658258;-69
2022/10/31 00:28:22;;;;;;;15.47;8.13;;;13.40;99.90;;;;;;4386796;28;659133;-69
2022/10/31 00:31:10;;;;;;;20.23;7.70;;;13.50;99.90;;;;;;4400958;28;657994;-69
2022/10/31 00:33:58;;;;;;;17.37;7.03;;;13.40;99.90;;;;;;4382046;28;658957;-69
2022/10/31 00:36:45;;;;;;;20.43;7.37;;;13.30;99.90;;;;;;4386369;28;658496;-70
2022/10/31 00:39:33;;;;;;;20.30;8.13;;;13.30;99.90;;;;;;4421840;28;658982;-70
2022/10/31 00:42:20;;;;;;;18.40;7.07;;;13.30;99.90;;;;;;4419771;28;657560;-70
2022/10/31 00:45:08;;;;;;;19.50;6.97;;;13.20;99.90;;;;;;4424917;28;658284;-70
2022/10/31 00:47:55;;;;;;;16.50;7.33;;;13.00;99.90;;;;;;4401207;28;657664;-70
2022/10/31 00:50:44;;;;;;;28.90;8.27;;;12.90;99.90;;;;;;4423429;28;658225;-70
2022/10/31 00:53:31;;;;;;;20.00;7.50;;;12.90;99.90;;;;;;4408798;28;657896;-70
2022/10/31 00:56:18;;;;;;;22.90;8.13;;;12.80;99.90;;;;;;4425695;28;658779;-70
2022/10/31 00:59:05;;;;;;;16.17;7.30;;;12.60;99.90;;;;;;4406274;28;657927;-70
2022/10/31 01:01:52;;;;;;;21.60;8.33;;;12.40;99.90;;;;;;4422937;28;658496;-70
2022/10/31 01:04:40;;;;;;;22.03;7.67;;;12.30;99.90;;;;;;4418437;28;657781;-70
2022/10/31 01:07:29;;;;;;;20.53;7.87;;;12.10;99.90;;;;;;4431784;28;658791;-70
2022/10/31 01:10:17;;;;;;;21.07;7.33;;;12.00;99.90;;;;;;4411068;28;657484;-70
2022/10/31 01:13:04;;;;;;;19.23;8.03;;;11.80;99.90;;;;;;4428894;28;657131;-70
2022/10/31 01:15:55;;;;;;;20.27;8.43;;;11.70;99.90;;;;;;4406992;28;658111;-70
2022/10/31 01:18:42;;;;;;;30.60;9.20;;;11.70;99.90;;;;;;4400661;28;658688;-70
2022/10/31 01:21:29;;;;;;;26.13;8.37;;;11.60;99.90;;;;;;4428068;28;657564;-70
2022/10/31 01:24:18;;;;;;;24.37;8.57;;;11.50;99.90;;;;;;4406927;28;657355;-70
2022/10/31 01:27:05;;;;;;;19.00;7.60;;;11.40;99.90;;;;;;4412713;28;658180;-70
2022/10/31 01:29:52;;;;;;;17.93;8.20;;;11.20;99.90;;;;;;4430668;28;658410;-70
2022/10/31 01:32:39;;;;;;;14.77;8.50;;;11.10;99.90;;;;;;4435151;28;657412;-70
2022/10/31 01:35:27;;;;;;;20.13;8.13;;;11.00;99.90;;;;;;4410370;28;658848;-70
2022/10/31 01:38:14;;;;;;;18.63;8.63;;;10.90;99.90;;;;;;4433462;28;657742;-70
2022/10/31 01:41:02;;;;;;;19.67;8.73;;;10.90;99.90;;;;;;4407561;28;657724;-70
2022/10/31 01:43:51;;;;;;;21.03;8.83;;;10.90;99.90;;;;;;4429573;28;657599;-70
2022/10/31 01:46:45;;;;;;;22.63;9.07;;;10.80;99.90;;;;;;4406473;28;658550;-70
2022/10/31 01:49:34;;;;;;;22.03;8.87;;;10.80;99.90;;;;;;4384538;28;658273;-70
2022/10/31 01:52:22;;;;;;;25.30;9.03;;;10.80;99.90;;;;;;4406536;28;657450;-70
2022/10/31 01:55:12;;;;;;;24.23;9.53;;;10.80;99.90;;;;;;4424651;28;658050;-70
2022/10/31 01:58:04;;;;;;;26.30;9.60;;;10.70;99.90;;;;;;4424902;28;657952;-70
2022/10/31 02:00:54;;;;;;;26.50;9.33;;;10.70;99.90;;;;;;4387330;28;659155;-70
2022/10/31 02:03:41;;;;;;;15.00;7.73;;;10.70;99.90;;;;;;4407108;28;657378;-70
2022/10/31 02:06:32;;;;;;;22.53;8.93;;;10.70;99.90;;;;;;4423211;28;657769;-70
2022/10/31 02:09:23;;;;;;;21.20;9.13;;;10.80;99.90;;;;;;4403873;28;657490;-70
2022/10/31 02:12:10;;;;;;;22.17;8.77;;;11.00;99.90;;;;;;4392242;28;657776;-70
2022/10/31 02:14:59;;;;;;;28.03;8.93;;;11.00;99.90;;;;;;4422406;28;659786;-70
2022/10/31 02:17:46;;;;;;;22.97;9.10;;;11.40;99.90;;;;;;4409735;28;657324;-70
2022/10/31 02:20:34;;;;;;;22.37;9.30;;;11.70;99.90;;;;;;4426058;28;659396;-70
2022/10/31 02:23:41;;;;;;;23.70;9.90;;;12.00;99.90;;;;;;4409291;28;658003;-70
2022/10/31 02:26:43;;;;;;;20.63;9.10;;;12.10;99.90;;;;;;4376120;28;658551;-70
2022/10/31 02:30:06;;;;;;;24.10;9.80;;;12.20;99.90;;;;;;4421805;28;657584;-69
2022/10/31 02:33:02;;;;;;;25.07;10.67;;;12.40;99.90;;;;;;4402879;28;657878;-70
2022/10/31 02:35:55;;;;;;;25.97;10.30;;;12.40;99.90;;;;;;4399341;28;659824;-69
2022/10/31 02:38:48;;;;;;;26.50;10.27;;;12.50;99.90;;;;;;4372638;28;658933;-70
2022/10/31 02:41:38;;;;;;;27.33;10.47;;;12.50;99.90;;;;;;4387939;28;659122;-70
2022/10/31 02:44:29;;;;;;;30.60;10.43;;;12.50;99.90;;;;;;4406732;28;658721;-69
2022/10/31 02:47:17;;;;;;;19.57;10.10;;;12.30;99.90;;;;;;4407116;28;658048;-70
2022/10/31 02:50:07;;;;;;;21.20;9.23;;;12.30;99.90;;;;;;4423993;28;658805;-70
2022/10/31 02:52:54;;;;;;;25.33;9.33;;;12.20;99.90;;;;;;4401863;28;657475;-70
2022/10/31 02:55:59;;;;;;;19.97;9.50;;;12.10;99.90;;;;;;4405847;28;657699;-70
2022/10/31 02:58:48;;;;;;;22.30;9.45;;;11.90;99.90;;;;;;4373824;28;658021;-70
2022/10/31 03:01:55;;;;;;;26.50;9.43;;;11.80;99.90;;;;;;4409565;28;657634;-70
2022/10/31 03:05:07;;;;;;;22.33;9.37;;;11.70;99.90;;;;;;4374649;28;658423;-70
2022/10/31 03:07:58;;;;;;;26.90;9.17;;;11.50;99.90;;;;;;4404624;28;657932;-70
2022/10/31 03:10:47;;;;;;;18.97;9.23;;;11.50;99.90;;;;;;4393198;28;657207;-70
2022/10/31 03:13:36;;;;;;;20.80;9.40;;;11.40;99.90;;;;;;4425175;28;657630;-70
2022/10/31 03:16:26;;;;;;;24.07;9.53;;;11.30;99.90;;;;;;4408529;28;658637;-70
2022/10/31 03:19:15;;;;;;;25.65;9.68;;;11.30;99.90;;;;;;4400974;28;658483;-70
2022/10/31 03:22:05;;;;;;;25.03;10.13;;;11.10;99.90;;;;;;4403723;28;659077;-70
2022/10/31 03:24:52;;;;;;;21.57;9.93;;;11.00;99.90;;;;;;4404969;28;659511;-70
2022/10/31 03:27:39;;;;;;;24.50;9.60;;;11.00;99.90;;;;;;4421644;28;658082;-70
2022/10/31 03:30:26;;;;;;;25.13;10.17;;;10.80;99.90;;;;;;4403234;28;657735;-70
2022/10/31 03:33:16;;;;;;;28.67;10.27;;;10.90;99.90;;;;;;4422620;28;659887;-70
2022/10/31 03:36:04;;;;;;;19.67;9.53;;;10.80;99.90;;;;;;4403480;28;659330;-70
2022/10/31 03:38:53;;;;;;;28.75;10.90;;;10.80;99.90;;;;;;4409780;28;657780;-70
2022/10/31 03:41:42;;;;;;;30.13;11.23;;;10.70;99.90;;;;;;4412129;28;658919;-70
2022/10/31 03:44:29;;;;;;;23.63;10.00;;;10.60;99.90;;;;;;4427298;28;659278;-70
2022/10/31 03:47:16;;;;;;;22.10;10.43;;;10.50;99.90;;;;;;4408649;28;658911;-70
2022/10/31 03:50:03;;;;;;;24.90;11.10;;;10.40;99.90;;;;;;4422098;28;659534;-70
2022/10/31 03:52:52;;;;;;;29.87;10.47;;;10.40;99.90;;;;;;4407561;28;658527;-70
2022/10/31 03:55:42;;;;;;;22.50;10.37;;;10.40;99.90;;;;;;4426598;28;659398;-70
2022/10/31 03:58:32;;;;;;;20.13;10.03;;;10.30;99.90;;;;;;4404424;28;658788;-70
2022/10/31 04:01:19;;;;;;;33.07;11.03;;;10.20;99.90;;;;;;4402115;28;659276;-70
2022/10/31 04:04:06;;;;;;;29.77;11.13;;;10.10;99.90;;;;;;4408471;28;658862;-70
2022/10/31 04:06:53;;;;;;;29.80;10.97;;;10.00;99.90;;;;;;4422752;28;659312;-70
2022/10/31 04:09:42;;;;;;;33.00;10.90;;;10.00;99.90;;;;;;4401151;28;658820;-70
2022/10/31 04:12:31;;;;;;;28.80;10.53;;;9.90;99.90;;;;;;4425469;28;658240;-70
2022/10/31 04:15:18;;;;;;;27.40;10.77;;;9.80;99.90;;;;;;4405110;28;658844;-70
2022/10/31 04:18:06;;;;;;;25.42;11.15;;;9.70;99.90;;;;;;4409774;28;657940;-70
2022/10/31 04:21:00;;;;;;;31.20;11.77;;;9.70;99.90;;;;;;4421924;28;657947;-70
2022/10/31 04:23:47;;;;;;;32.07;11.13;;;9.60;99.90;;;;;;4380149;28;658564;-70
2022/10/31 04:26:35;;;;;;;25.37;10.40;;;9.50;99.90;;;;;;4424059;28;657831;-70
2022/10/31 04:29:24;;;;;;;26.60;11.43;;;9.50;99.90;;;;;;4431573;28;657580;-70
2022/10/31 04:32:11;;;;;;;24.13;10.88;;;9.40;99.90;;;;;;4405942;28;657423;-70
2022/10/31 04:34:58;;;;;;;30.67;10.97;;;9.40;99.90;;;;;;4424112;28;658023;-70
2022/10/31 04:37:45;;;;;;;26.10;11.00;;;9.40;99.90;;;;;;4404817;28;657511;-70
2022/10/31 04:40:32;;;;;;;22.03;10.47;;;9.30;99.90;;;;;;4434681;28;657742;-70
2022/10/31 04:43:20;;;;;;;32.30;11.07;;;9.30;99.90;;;;;;4428714;28;657175;-70
2022/10/31 04:46:09;;;;;;;23.47;10.33;;;9.30;99.90;;;;;;4432454;28;657666;-70
2022/10/31 04:48:56;;;;;;;26.40;11.47;;;9.40;99.90;;;;;;4407222;28;658150;-70
2022/10/31 04:51:43;;;;;;;27.97;12.10;;;9.40;99.90;;;;;;4434275;28;657555;-70
2022/10/31 04:54:30;;;;;;;30.23;12.03;;;9.40;99.90;;;;;;4411464;28;657432;-70
2022/10/31 04:57:17;;;;;;;24.43;11.40;;;9.40;99.90;;;;;;4435347;28;658061;-70
2022/10/31 05:00:05;;;;;;;24.93;11.63;;;9.40;99.90;;;;;;4430884;28;658106;-70
2022/10/31 05:02:54;;;;;;;26.17;11.43;;;9.30;99.90;;;;;;4408120;28;658780;-70
2022/10/31 05:05:42;;;;;;;31.90;10.37;;;9.20;99.90;;;;;;4412206;28;657700;-69
2022/10/31 05:08:29;;;;;;;28.33;11.97;;;9.20;99.90;;;;;;4431033;28;657889;-70
2022/10/31 05:11:16;;;;;;;24.37;10.77;;;9.10;99.90;;;;;;4409599;28;657559;-70
2022/10/31 05:14:04;;;;;;;23.40;10.10;;;9.00;99.90;;;;;;4430172;28;657547;-70
2022/10/31 05:16:51;;;;;;;28.80;12.67;;;9.00;99.90;;;;;;4409321;28;657843;-70
2022/10/31 05:19:39;;;;;;;24.90;10.97;;;9.00;99.90;;;;;;4429699;28;657375;-70
2022/10/31 05:22:26;;;;;;;26.00;11.90;;;8.90;99.90;;;;;;4410264;28;657888;-69
2022/10/31 05:25:14;;;;;;;27.97;11.40;;;8.90;99.90;;;;;;4428055;28;658252;-69
2022/10/31 05:28:01;;;;;;;23.87;11.20;;;9.00;99.90;;;;;;4411200;28;657438;-69
2022/10/31 05:30:48;;;;;;;23.67;11.53;;;8.90;99.90;;;;;;4423817;28;658234;-69
2022/10/31 05:33:35;;;;;;;26.30;11.60;;;8.90;99.90;;;;;;4409325;28;657696;-69
2022/10/31 05:36:24;;;;;;;29.13;12.03;;;8.90;99.90;;;;;;4425771;28;658558;-69
2022/10/31 05:39:11;;;;;;;25.40;11.83;;;8.90;99.90;;;;;;4410701;28;657314;-69
2022/10/31 05:41:58;;;;;;;24.33;12.37;;;8.90;99.90;;;;;;4432655;28;658940;-70
2022/10/31 05:44:45;;;;;;;27.23;12.50;;;8.90;99.90;;;;;;4411279;28;657692;-70
2022/10/31 05:47:32;;;;;;;29.33;11.97;;;9.00;99.90;;;;;;4430143;28;659107;-69
2022/10/31 05:50:20;;;;;;;24.40;11.00;;;8.90;99.90;;;;;;4421837;28;658136;-69
2022/10/31 05:53:09;;;;;;;23.27;12.23;;;8.90;99.90;;;;;;4423298;28;657160;-69
2022/10/31 05:55:56;;;;;;;26.40;12.40;;;8.90;99.90;;;;;;4407233;28;658752;-70
2022/10/31 05:58:43;;;;;;;30.30;12.70;;;9.00;99.90;;;;;;4428091;28;658353;-69
2022/10/31 06:01:30;;;;;;;26.77;12.40;;;9.00;99.90;;;;;;4401999;28;657752;-69
2022/10/31 06:04:17;;;;;;;23.93;11.30;;;9.10;99.90;;;;;;4427152;28;658079;-69
2022/10/31 06:07:04;;;;;;;31.10;11.80;;;9.10;99.90;;;;;;4423667;28;657563;-70
2022/10/31 06:09:53;;;;;;;23.27;10.87;;;9.20;99.90;;;;;;4398757;28;657898;-70
2022/10/31 06:12:40;;;;;;;32.75;11.60;;;9.30;99.90;;;;;;4407851;28;657426;-70
2022/10/31 06:15:27;;;;;;;23.90;11.63;;;9.30;99.90;;;;;;4422480;28;657646;-70
2022/10/31 06:18:15;;;;;;;25.17;11.87;;;9.50;99.90;;;;;;4429764;28;658234;-70
2022/10/31 06:21:02;;;;;;;23.00;12.10;;;9.60;99.90;;;;;;4427926;28;657862;-70
2022/10/31 06:23:49;;;;;;;27.13;12.27;;;9.90;99.90;;;;;;4428877;28;658455;-70
2022/10/31 06:26:38;;;;;;;34.80;12.90;;;10.10;99.90;;;;;;4407854;28;657876;-70
2022/10/31 06:29:25;;;;;;;28.90;13.30;;;10.30;99.90;;;;;;4409830;28;659212;-70
2022/10/31 06:32:12;;;;;;;25.60;11.47;;;10.60;99.90;;;;;;4424096;28;659517;-69
2022/10/31 06:35:00;;;;;;;27.47;11.90;;;10.80;99.90;;;;;;4421216;28;659060;-70
2022/10/31 06:37:52;;;;;;;31.03;11.83;;;11.00;99.90;;;;;;4423091;28;658962;-70
2022/10/31 06:40:39;;;;;;;31.47;12.40;;;11.20;99.90;;;;;;4402963;28;659673;-70
2022/10/31 06:43:28;;;;;;;32.73;13.63;;;11.30;99.90;;;;;;4401278;28;659400;-70
2022/10/31 06:46:15;;;;;;;24.60;12.83;;;11.50;99.90;;;;;;4412002;28;660181;-70
2022/10/31 06:49:02;;;;;;;27.57;12.73;;;11.60;99.90;;;;;;4425460;28;659120;-70
2022/10/31 06:51:49;;;;;;;31.83;13.60;;;11.70;99.90;;;;;;4420273;28;658844;-69
2022/10/31 06:54:37;;;;;;;28.63;13.17;;;12.00;99.90;;;;;;4403631;28;658757;-70
2022/10/31 06:57:24;;;;;;;28.73;13.00;;;12.00;99.90;;;;;;4422996;28;658303;-70
2022/10/31 07:00:13;;;;;;;34.03;13.03;;;12.10;99.90;;;;;;4400683;28;659105;-69
2022/10/31 07:03:01;;;;;;;28.57;12.73;;;12.10;99.90;;;;;;4410834;28;659072;-70
2022/10/31 07:05:48;;;;;;;27.37;12.00;;;12.20;99.90;;;;;;4423532;28;659770;-69
2022/10/31 07:08:35;;;;;;;25.13;13.00;;;12.30;99.90;;;;;;4402787;28;658872;-70
2022/10/31 07:11:23;;;;;;;24.50;11.77;;;12.40;99.90;;;;;;4422949;28;660402;-69
2022/10/31 07:14:10;;;;;;;27.53;12.00;;;12.60;99.90;;;;;;4412654;28;658240;-70
2022/10/31 07:16:59;;;;;;;23.67;12.67;;;12.60;99.90;;;;;;4428463;28;658442;-70
2022/10/31 07:19:46;;;;;;;31.50;12.48;;;12.70;99.90;;;;;;4397958;28;658316;-70
2022/10/31 07:22:34;;;;;;;29.50;13.10;;;12.70;99.90;;;;;;4423458;28;659276;-70
2022/10/31 07:25:21;;;;;;;32.17;12.23;;;12.90;99.90;;;;;;4402881;28;660185;-70
2022/10/31 07:28:08;;;;;;;24.27;12.10;;;13.00;99.90;;;;;;4419942;28;659621;-70
2022/10/31 07:30:57;;;;;;;26.97;12.30;;;13.10;99.90;;;;;;4406111;28;658709;-70
2022/10/31 07:33:45;;;;;;;28.60;11.73;;;13.20;99.90;;;;;;4417902;28;659313;-70
2022/10/31 07:36:32;;;;;;;21.10;10.93;;;13.30;99.90;;;;;;4401504;28;659236;-69
2022/10/31 07:39:20;;;;;;;22.53;10.97;;;13.30;99.90;;;;;;4419192;28;658304;-70
2022/10/31 07:42:07;;;;;;;24.23;11.27;;;13.50;99.90;;;;;;4428701;28;659036;-70
2022/10/31 07:44:54;;;;;;;27.27;11.33;;;13.70;99.90;;;;;;4427121;28;658813;-70
2022/10/31 07:47:42;;;;;;;25.67;10.80;;;13.80;99.90;;;;;;4410732;28;659491;-70
2022/10/31 07:50:32;;;;;;;22.40;10.13;;;13.90;99.90;;;;;;4434147;28;658921;-70
2022/10/31 07:53:19;;;;;;;27.37;10.97;;;14.10;99.90;;;;;;4401092;28;658925;-70
2022/10/31 07:56:06;;;;;;;23.17;11.43;;;14.20;99.90;;;;;;4403425;28;659147;-70
2022/10/31 07:58:54;;;;;;;27.77;11.23;;;14.50;99.90;;;;;;4426898;28;658678;-70
2022/10/31 08:01:41;;;;;;;19.23;10.63;;;14.80;99.90;;;;;;4402688;28;658516;-70
2022/10/31 08:04:28;;;;;;;22.03;10.83;;;14.90;99.90;;;;;;4415874;28;658987;-69
2022/10/31 08:07:17;;;;;;;24.93;10.50;;;14.90;99.90;;;;;;4385660;28;658489;-70
2022/10/31 08:10:04;;;;;;;26.60;10.67;;;15.10;99.90;;;;;;4404888;28;659036;-70
2022/10/31 08:12:56;;;;;;;22.20;9.87;;;15.20;99.90;;;;;;4372057;28;658493;-70
2022/10/31 08:15:49;;;;;;;25.07;9.27;;;15.40;99.90;;;;;;4373005;28;658851;-70
2022/10/31 08:18:37;;;;;;;23.83;10.17;;;15.40;99.90;;;;;;4362821;28;659286;-70
2022/10/31 08:21:24;;;;;;;23.30;9.93;;;15.50;99.90;;;;;;4406098;28;659536;-69
2022/10/31 08:24:12;;;;;;;24.17;10.17;;;15.50;99.90;;;;;;4389894;28;657704;-69
2022/10/31 08:27:00;;;;;;;19.83;8.57;;;15.50;99.90;;;;;;4397187;28;658483;-69
2022/10/31 08:29:47;;;;;;;21.90;9.77;;;15.60;99.90;;;;;;4411969;28;657031;-69
2022/10/31 08:32:34;;;;;;;23.50;10.83;;;15.70;99.90;;;;;;4408893;28;657922;-70
2022/10/31 08:35:22;;;;;;;20.60;9.07;;;15.80;99.90;;;;;;4380869;28;659180;-69
2022/10/31 08:38:09;;;;;;;21.43;10.50;;;16.10;99.90;;;;;;4408029;28;657807;-70
2022/10/31 08:40:58;;;;;;;24.03;9.70;;;16.20;99.90;;;;;;4385742;28;658473;-70
2022/10/31 08:43:45;;;;;;;20.07;9.37;;;16.40;99.90;;;;;;4396532;28;660332;-70
2022/10/31 08:46:32;;;;;;;18.70;9.60;;;16.80;99.90;;;;;;4399969;28;658853;-70
2022/10/31 08:49:19;;;;;;;25.37;10.50;;;17.20;99.90;;;;;;4407570;28;657414;-70
2022/10/31 08:52:07;;;;;;;21.40;9.10;;;17.40;99.90;;;;;;4384368;28;659608;-70
2022/10/31 08:54:54;;;;;;;24.80;10.50;;;17.60;99.90;;;;;;4408719;28;657833;-70
2022/10/31 08:57:42;;;;;;;30.10;11.93;;;17.90;99.90;;;;;;4387232;28;659037;-70
2022/10/31 09:00:29;;;;;;;26.83;11.77;;;17.90;99.90;;;;;;4406693;28;658862;-70
2022/10/31 09:03:18;;;;;;;30.40;11.37;;;18.20;99.90;;;;;;4385030;28;659876;-70
2022/10/31 09:06:08;;;;;;;28.47;11.37;;;18.40;99.90;;;;;;4387625;28;658676;-70
2022/10/31 09:08:55;;;;;;;24.83;10.38;;;18.40;99.90;;;;;;4387587;28;658273;-70
2022/10/31 09:11:42;;;;;;;23.63;10.30;;;18.50;99.90;;;;;;4411075;28;659001;-70
2022/10/31 09:14:31;;;;;;;23.27;10.13;;;18.50;99.90;;;;;;4405218;28;658308;-70
2022/10/31 09:17:18;;;;;;;22.60;10.63;;;18.90;99.90;;;;;;4382016;28;660670;-70
2022/10/31 09:20:06;;;;;;;21.07;9.03;;;18.60;99.90;;;;;;4387487;28;658887;-70
2022/10/31 09:22:57;;;;;;;24.67;9.00;;;18.80;99.90;;;;;;4404782;28;657816;-70
2022/10/31 09:25:44;;;;;;;24.47;9.87;;;18.50;99.90;;;;;;4382830;28;658019;-70
2022/10/31 09:28:32;;;;;;;25.97;8.30;;;18.80;99.90;;;;;;4387890;28;657492;-70
2022/10/31 09:31:21;;;;;;;20.77;7.73;;;19.30;99.90;;;;;;4409631;28;657966;-70
2022/10/31 09:34:08;;;;;;;19.47;9.57;;;19.40;99.90;;;;;;4390976;28;658221;-69
2022/10/31 09:36:55;;;;;;;19.47;7.93;;;19.40;99.90;;;;;;4385824;28;657768;-70
2022/10/31 09:39:42;;;;;;;19.53;7.67;;;19.40;99.90;;;;;;4415152;28;658625;-70
2022/10/31 09:42:48;;;;;;;19.20;8.77;;;19.20;99.60;;;;;;4399092;28;657609;-70
2022/10/31 09:45:37;;;;;;;26.87;9.27;;;19.20;99.90;;;;;;4378639;28;657338;-70
2022/10/31 09:48:46;;;;;;;21.90;9.05;;;19.50;98.50;;;;;;4405823;28;657114;-70
2022/10/31 09:51:35;;;;;;;18.03;8.60;;;20.00;99.90;;;;;;4379866;28;657486;-70
2022/10/31 09:54:25;;;;;;;19.63;7.93;;;20.40;96.00;;;;;;4385083;28;658887;-69
2022/10/31 09:57:14;;;;;;;24.47;7.87;;;20.40;94.50;;;;;;4388366;28;658834;-70
2022/10/31 10:00:01;;;;;;;21.50;8.17;;;20.60;96.80;;;;;;4386415;28;657300;-70
2022/10/31 10:02:50;;;;;;;20.67;8.20;;;20.70;92.60;;;;;;4410594;28;658226;-70
2022/10/31 10:05:41;;;;;;;17.87;7.63;;;21.40;94.50;;;;;;4392967;28;658720;-70
2022/10/31 10:08:31;;;;;;;22.23;7.63;;;21.40;91.70;;;;;;4388366;28;658817;-70
2022/10/31 10:11:29;;;;;;;19.10;7.73;;;21.50;90.30;;;;;;4388911;28;658366;-70
2022/10/31 10:14:33;;;;;;;19.33;7.97;;;21.60;88.00;;;;;;4363334;28;658849;-70
2022/10/31 10:17:27;;;;;;;20.17;7.37;;;21.40;89.30;;;;;;4370386;28;657820;-70
2022/10/31 10:20:21;;;;;;;18.67;8.87;;;21.20;88.50;;;;;;4389009;28;657684;-70
2022/10/31 10:23:30;;;;;;;20.87;8.37;;;21.40;90.60;;;;;;4383746;28;658096;-70
2022/10/31 10:26:19;;;;;;;15.80;7.67;;;21.40;91.40;;;;;;4366504;28;657439;-70
2022/10/31 10:29:17;;;;;;;15.33;7.50;;;21.70;88.80;;;;;;4390471;28;657579;-71
2022/10/31 10:32:12;;;;;;;18.57;7.73;;;22.20;87.90;;;;;;4383650;28;657580;-70
2022/10/31 10:35:02;;;;;;;22.90;7.40;;;22.60;83.20;;;;;;4387236;28;657760;-70
2022/10/31 10:37:50;;;;;;;20.13;7.90;;;22.20;85.20;;;;;;4386778;28;658329;-70
2022/10/31 10:40:39;;;;;;;18.63;7.87;;;22.10;87.90;;;;;;4388420;28;659441;-70
2022/10/31 10:43:30;;;;;;;16.00;7.40;;;21.60;84.10;;;;;;4384016;28;657496;-70
2022/10/31 10:49:25;;;;;;;16.63;7.50;;;21.90;84.80;;;;;;4387913;28;657882;-70
2022/10/31 10:52:16;;;;;;;22.93;8.87;;;22.20;81.40;;;;;;4388550;28;658029;-70
2022/10/31 10:55:06;;;;;;;20.80;8.30;;;22.50;82.90;;;;;;4379921;28;658712;-70
2022/10/31 10:57:58;;;;;;;21.67;8.63;;;22.50;82.10;;;;;;4387634;28;658164;-70
2022/10/31 11:00:47;;;;;;;21.20;7.90;;;23.30;81.20;;;;;;4377361;28;658011;-70
2022/10/31 11:03:35;;;;;;;19.20;8.43;;;23.90;77.80;;;;;;4412015;28;657713;-70
2022/10/31 11:06:25;;;;;;;21.60;8.97;;;23.60;75.70;;;;;;4386186;28;658664;-70
2022/10/31 11:09:13;;;;;;;20.07;8.63;;;22.70;79.40;;;;;;4387868;28;657878;-70
2022/10/31 11:12:00;;;;;;;21.55;8.93;;;22.70;80.10;;;;;;4399277;28;657683;-70
2022/10/31 11:14:51;;;;;;;20.43;8.93;;;23.30;75.80;;;;;;4411503;28;658819;-70
2022/10/31 11:17:40;;;;;;;23.23;8.70;;;23.50;76.30;;;;;;4388256;28;658429;-70
2022/10/31 11:20:35;;;;;;;30.63;9.23;;;23.40;75.80;;;;;;4384955;28;658330;-71
2022/10/31 11:23:23;;;;;;;21.67;8.98;;;23.40;79.60;;;;;;4364898;28;658103;-70
2022/10/31 11:26:19;;;;;;;18.48;8.30;;;24.10;73.60;;;;;;4399276;28;657587;-71
2022/10/31 11:29:06;;;;;;;20.15;7.78;;;24.30;75.40;;;;;;4357475;28;658371;-71
2022/10/31 11:31:55;;;;;;;21.30;8.32;;;25.80;73.50;;;;;;4410816;28;658646;-70
2022/10/31 11:34:45;;;;;;;16.17;7.43;;;26.10;63.50;;;;;;4384011;28;658625;-71
2022/10/31 11:37:35;;;;;;;25.27;8.77;;;25.80;64.10;;;;;;4388881;28;658246;-71
2022/10/31 11:40:23;;;;;;;17.83;8.15;;;25.10;67.20;;;;;;4380699;28;658847;-70
2022/10/31 11:43:14;;;;;;;22.40;8.35;;;25.90;64.90;;;;;;4387145;28;657515;-71
2022/10/31 11:46:08;;;;;;;22.40;6.90;;;26.10;64.30;;;;;;4390008;28;660986;-71
2022/10/31 11:48:57;;;;;;;16.35;6.32;;;26.60;58.70;;;;;;4368561;28;658325;-71
2022/10/31 11:51:44;;;;;;;16.23;7.15;;;26.40;59.40;;;;;;4405938;28;657881;-70
2022/10/31 11:54:33;;;;;;;19.02;6.55;;;26.20;59.50;;;;;;4395011;28;657681;-71
2022/10/31 11:57:27;;;;;;;19.38;6.60;;;27.00;58.40;;;;;;4398393;28;657962;-71
2022/10/31 12:00:22;;;;;;;19.77;6.85;;;27.50;57.90;;;;;;4380804;28;658034;-71
2022/10/31 12:03:15;;;;;;;19.73;7.90;;;27.60;57.00;;;;;;4382911;28;657908;-71
2022/10/31 12:06:07;;;;;;;17.35;7.00;;;27.70;56.40;;;;;;4385818;28;658243;-71
2022/10/31 12:08:55;;;;;;;17.95;6.88;;;27.50;55.40;;;;;;4405885;28;657404;-71
2022/10/31 12:11:50;;;;;;;17.48;6.18;;;28.70;56.20;;;;;;4404124;28;657652;-72
2022/10/31 12:14:41;;;;;;;19.70;6.50;;;29.40;50.60;;;;;;4362199;28;658844;-71
2022/10/31 12:17:32;;;;;;;19.53;5.87;;;30.40;48.60;;;;;;4381454;28;658728;-71
2022/10/31 12:20:22;;;;;;;15.15;6.40;;;30.70;47.80;;;;;;4386846;28;657633;-71
2022/10/31 12:23:14;;;;;;;12.97;5.87;;;30.00;46.90;;;;;;4383166;28;657533;-71
2022/10/31 12:26:10;;;;;;;27.92;6.53;;;31.00;45.70;;;;;;4391151;28;657875;-71
2022/10/31 12:29:07;;;;;;;16.33;6.05;;;32.10;44.60;;;;;;4358363;28;658466;-71
2022/10/31 12:32:04;;;;;;;19.90;6.50;;;32.50;43.20;;;;;;4379299;28;657610;-70
2022/10/31 12:35:19;;;;;;;16.67;5.57;;;32.00;42.40;;;;;;4383311;28;657647;-71
2022/10/31 12:38:26;;;;;;;19.00;6.70;;;32.00;42.50;;;;;;4360544;28;657914;-71
2022/10/31 12:41:21;;;;;;;18.75;5.47;;;31.80;43.40;;;;;;4383561;28;657830;-70
2022/10/31 12:44:15;;;;;;;18.55;6.05;;;30.90;42.60;;;;;;4384530;28;658117;-71
2022/10/31 12:47:10;;;;;;;18.48;6.45;;;29.80;45.90;;;;;;4355815;28;657901;-71
2022/10/31 12:50:01;;;;;;;18.80;6.15;;;30.30;46.10;;;;;;4357670;28;658405;-70
2022/10/31 12:52:58;;;;;;;13.73;5.78;;;31.10;43.70;;;;;;4378073;28;658574;-71
2022/10/31 12:55:55;;;;;;;14.77;5.80;;;31.30;43.60;;;;;;4359905;28;658123;-71
2022/10/31 12:58:46;;;;;;;12.35;5.38;;;30.90;43.00;;;;;;4387566;28;657537;-70
2022/10/31 13:01:35;;;;;;;13.73;5.73;;;31.10;42.20;;;;;;4390748;28;657723;-70
2022/10/31 13:04:36;;;;;;;16.90;6.10;;;30.60;44.20;;;;;;4385783;28;658593;-70
2022/10/31 13:07:25;;;;;;;15.48;6.20;;;30.40;45.30;;;;;;4383977;28;657779;-70
2022/10/31 13:10:17;;;;;;;14.60;5.50;;;30.90;45.20;;;;;;4382275;28;659008;-71
2022/10/31 13:13:14;;;;;;;17.53;6.13;;;31.90;42.70;;;;;;4389511;28;658061;-71
2022/10/31 13:16:02;;;;;;;22.00;6.00;;;33.40;42.20;;;;;;4387745;28;657422;-71
2022/10/31 13:18:52;;;;;;;12.35;5.70;;;33.40;40.90;;;;;;4408905;28;657581;-70
2022/10/31 13:21:41;;;;;;;15.57;5.90;;;34.00;38.60;;;;;;4387559;28;657616;-71
2022/10/31 13:24:31;;;;;;;18.75;6.22;;;32.90;41.30;;;;;;4388975;28;658304;-73
2022/10/31 13:27:20;;;;;;;16.40;6.20;;;32.80;40.70;;;;;;4388338;28;659813;-73
2022/10/31 13:30:15;;;;;;;18.77;7.78;;;32.80;41.30;;;;;;4386642;28;658939;-71
2022/10/31 13:33:03;;;;;;;17.35;8.20;;;33.90;40.60;;;;;;4361084;28;658338;-71
2022/10/31 13:35:52;;;;;;;20.70;6.57;;;32.70;40.50;;;;;;4388268;28;657330;-72
2022/10/31 13:38:41;;;;;;;13.77;6.22;;;32.40;41.10;;;;;;4411418;28;658248;-71
2022/10/31 13:41:34;;;;;;;16.70;6.43;;;32.90;42.50;;;;;;4382712;28;657804;-71
2022/10/31 13:44:23;;;;;;;18.13;7.32;;;32.10;41.30;;;;;;4384985;28;657501;-70
2022/10/31 13:47:27;;;;;;;22.63;8.00;;;31.70;42.50;;;;;;4389711;28;657760;-71
2022/10/31 13:50:21;;;;;;;19.35;8.98;;;31.90;42.20;;;;;;4383212;28;657273;-71
2022/10/31 13:53:19;;;;;;;24.47;7.77;;;29.50;44.10;;;;;;4383522;28;658489;-71
2022/10/31 13:56:16;;;;;;;20.47;7.00;;;28.70;46.50;;;;;;4361988;28;658993;-71
2022/10/31 13:59:19;;;;;;;18.63;7.50;;;27.60;51.00;;;;;;4381596;28;658434;-69
2022/10/31 14:02:15;;;;;;;24.97;8.30;;;26.40;52.60;;;;;;4361651;28;658561;-69
2022/10/31 14:05:06;;;;;;;18.13;8.10;;;26.10;53.10;;;;;;4386138;28;658076;-70
2022/10/31 14:07:53;;;;;;;17.65;7.78;;;26.30;52.30;;;;;;4381607;28;659350;-69
2022/10/31 14:10:47;;;;;;;21.50;8.43;;;25.90;52.60;;;;;;4389501;28;658230;-69
2022/10/31 14:13:37;;;;;;;21.73;8.15;;;25.70;54.00;;;;;;4378602;28;657819;-70
2022/10/31 14:16:25;;;;;;;17.45;7.28;;;26.40;54.70;;;;;;4384446;28;657423;-70
2022/10/31 14:19:16;;;;;;;27.58;8.82;;;27.10;53.80;;;;;;4385647;28;658975;-69
2022/10/31 14:22:04;;;;;;;25.73;8.63;;;25.30;55.20;;;;;;4384339;28;658107;-69